Time;durP1;ratioP1;P1;durP2;ratioP2;P2;SDS_P1;SDS_P2;PMS_P1;PMS_P2;Temp;Humidity;BMP_temperature;BMP_pressure;BME280_temperature;BME280_humidity;BME280_pressure;Samples;Min_cycle;Max_cycle;Signal;HPM_P1;HPM_P2
2022/01/06 00:00:42;;;;;;;12.40;2.40;;;4.60;99.90;;;;;;5076613;28;20466;-70
2022/01/06 00:03:09;;;;;;;6.83;2.03;;;4.60;99.90;;;;;;5076704;28;20462;-69
2022/01/06 00:05:37;;;;;;;6.23;1.90;;;4.60;99.90;;;;;;5076599;28;20454;-70
2022/01/06 00:08:05;;;;;;;6.37;1.80;;;4.60;99.90;;;;;;5076586;28;20459;-70
2022/01/06 00:10:32;;;;;;;4.73;2.17;;;4.60;99.90;;;;;;5076538;28;20462;-70
2022/01/06 00:13:09;;;;;;;3.90;1.47;;;4.60;99.90;;;;;;5076577;28;20558;-69
2022/01/06 00:15:41;;;;;;;12.87;2.80;;;4.60;99.90;;;;;;5076675;28;20482;-69
2022/01/06 00:18:19;;;;;;;4.47;1.73;;;4.60;99.90;;;;;;5077114;28;20449;-70
2022/01/06 00:23:34;;;;;;;5.47;2.10;;;4.60;99.90;;;;;;5077147;28;20868;-70
2022/01/06 00:26:02;;;;;;;6.87;2.20;;;4.60;99.90;;;;;;5077021;28;20454;-69
2022/01/06 00:28:30;;;;;;;10.20;2.60;;;4.60;99.90;;;;;;5077846;28;20450;-69
2022/01/06 00:30:56;;;;;;;6.77;2.60;;;4.50;99.90;;;;;;5077346;28;20466;-71
2022/01/06 00:33:24;;;;;;;5.93;2.00;;;4.50;99.90;;;;;;5078347;28;20458;-70
2022/01/06 00:35:52;;;;;;;4.10;2.10;;;4.60;99.90;;;;;;5077791;28;20959;-70
2022/01/06 00:38:19;;;;;;;7.63;2.63;;;4.60;99.90;;;;;;5077113;28;20516;-70
2022/01/06 00:40:46;;;;;;;7.97;2.00;;;4.60;99.90;;;;;;5077108;28;20455;-70
2022/01/06 00:43:13;;;;;;;5.73;1.97;;;4.50;99.90;;;;;;5076646;28;20480;-71
2022/01/06 00:45:43;;;;;;;4.10;1.87;;;4.30;99.90;;;;;;5076666;28;20458;-70
2022/01/06 00:48:10;;;;;;;7.77;2.47;;;4.20;99.90;;;;;;5076055;28;20482;-70
2022/01/06 00:50:37;;;;;;;6.03;2.70;;;4.00;99.90;;;;;;5076273;28;20468;-70
2022/01/06 00:53:05;;;;;;;6.90;2.80;;;3.90;99.90;;;;;;5075901;28;20454;-68
2022/01/06 00:55:33;;;;;;;4.07;2.20;;;3.80;99.90;;;;;;5076156;28;20459;-70
2022/01/06 00:58:01;;;;;;;4.33;2.63;;;3.60;99.90;;;;;;5075681;28;20516;-70
2022/01/06 01:00:31;;;;;;;5.33;2.80;;;3.60;99.90;;;;;;5075870;28;20458;-69
2022/01/06 01:02:58;;;;;;;6.57;2.93;;;3.50;99.90;;;;;;5075394;28;20556;-70
2022/01/06 01:05:24;;;;;;;5.57;3.03;;;3.40;99.90;;;;;;5074451;28;20458;-70
2022/01/06 01:07:51;;;;;;;2.63;1.80;;;3.40;99.90;;;;;;5075108;28;20458;-70
2022/01/06 01:10:19;;;;;;;5.83;2.07;;;3.30;99.90;;;;;;5075107;28;20454;-69
2022/01/06 01:12:48;;;;;;;2.70;1.73;;;3.20;99.90;;;;;;5075741;28;20462;-72
2022/01/06 01:15:19;;;;;;;5.27;1.77;;;3.10;99.90;;;;;;5075117;28;20458;-71
2022/01/06 01:17:48;;;;;;;3.40;1.50;;;3.00;99.90;;;;;;5075042;28;20470;-70
2022/01/06 01:20:14;;;;;;;3.10;1.57;;;3.00;99.90;;;;;;5075067;28;20554;-70
2022/01/06 01:22:41;;;;;;;4.90;2.33;;;2.90;99.90;;;;;;5075957;28;20541;-70
2022/01/06 01:25:08;;;;;;;3.40;1.77;;;2.80;99.90;;;;;;5074635;28;20458;-70
2022/01/06 01:27:40;;;;;;;2.87;1.73;;;2.80;99.90;;;;;;5074584;28;20914;-70
2022/01/06 01:30:11;;;;;;;5.10;2.00;;;2.70;99.90;;;;;;5075003;28;20734;-70
2022/01/06 01:32:39;;;;;;;11.67;2.50;;;2.60;99.90;;;;;;5075077;28;20693;-70
2022/01/06 01:35:09;;;;;;;4.60;2.07;;;2.60;99.90;;;;;;5074617;28;20950;-70
2022/01/06 01:37:37;;;;;;;5.90;2.40;;;2.60;99.90;;;;;;5074926;28;20474;-70
2022/01/06 01:40:06;;;;;;;5.13;2.50;;;2.50;99.90;;;;;;5075031;28;20480;-69
2022/01/06 01:42:33;;;;;;;4.67;1.57;;;2.50;99.90;;;;;;5075159;28;20466;-69
2022/01/06 01:45:02;;;;;;;3.83;1.70;;;2.50;99.90;;;;;;5076119;28;20516;-69
2022/01/06 01:47:32;;;;;;;2.67;1.80;;;2.40;99.90;;;;;;5074945;28;20513;-70
2022/01/06 01:50:11;;;;;;;3.00;1.60;;;2.50;99.90;;;;;;5074750;28;20446;-70
2022/01/06 01:52:38;;;;;;;4.07;1.60;;;2.50;99.90;;;;;;5074793;28;20822;-70
2022/01/06 01:55:06;;;;;;;4.93;1.77;;;2.50;99.90;;;;;;5074780;28;20458;-70
2022/01/06 01:57:33;;;;;;;2.90;1.97;;;2.50;99.90;;;;;;5074568;28;20561;-70
2022/01/06 02:00:05;;;;;;;2.90;2.03;;;2.60;99.90;;;;;;5074368;28;20515;-69
2022/01/06 02:02:32;;;;;;;1.87;1.67;;;2.60;99.90;;;;;;5074831;28;20434;-70
2022/01/06 02:04:59;;;;;;;3.30;1.80;;;2.60;99.90;;;;;;5074369;28;20782;-69
2022/01/06 02:07:26;;;;;;;3.03;1.73;;;2.70;99.90;;;;;;5074836;28;20792;-69
2022/01/06 02:09:53;;;;;;;3.10;1.50;;;2.70;99.90;;;;;;5074467;28;20945;-69
2022/01/06 02:12:24;;;;;;;3.40;1.83;;;2.70;99.90;;;;;;5074748;28;20527;-70
2022/01/06 02:14:52;;;;;;;3.50;2.40;;;2.70;99.90;;;;;;5075017;28;20462;-70
2022/01/06 02:17:20;;;;;;;3.80;1.80;;;2.70;99.90;;;;;;5077752;28;20817;-70
2022/01/06 02:19:54;;;;;;;1.70;1.43;;;2.70;99.90;;;;;;5078562;28;20458;-71
2022/01/06 02:22:20;;;;;;;3.17;1.70;;;2.70;99.90;;;;;;5078512;28;20789;-70
2022/01/06 02:24:47;;;;;;;1.97;1.30;;;2.70;99.90;;;;;;5078511;28;20454;-70
2022/01/06 02:27:14;;;;;;;3.77;2.13;;;2.80;99.90;;;;;;5078187;28;20840;-70
2022/01/06 02:29:42;;;;;;;3.50;1.90;;;2.80;99.90;;;;;;5077826;28;20458;-70
2022/01/06 02:32:09;;;;;;;9.53;2.10;;;2.80;99.90;;;;;;5078203;28;20539;-70
2022/01/06 02:34:36;;;;;;;10.67;1.97;;;2.90;99.90;;;;;;5078341;28;20453;-70
2022/01/06 02:37:04;;;;;;;4.30;2.20;;;2.90;99.90;;;;;;5078430;28;20803;-70
2022/01/06 02:39:31;;;;;;;2.57;1.80;;;2.80;99.90;;;;;;5078151;28;20767;-69
2022/01/06 02:41:58;;;;;;;4.50;2.10;;;2.80;99.90;;;;;;5078179;28;20829;-69
2022/01/06 02:44:26;;;;;;;4.70;1.83;;;2.80;99.90;;;;;;5078000;28;20458;-69
2022/01/06 02:46:53;;;;;;;3.13;1.80;;;2.80;99.90;;;;;;5078281;28;20528;-69
2022/01/06 02:49:20;;;;;;;4.37;1.60;;;2.80;99.90;;;;;;5077875;28;20482;-69
2022/01/06 02:51:47;;;;;;;1.70;1.20;;;2.80;99.90;;;;;;5078310;28;20515;-69
2022/01/06 02:54:15;;;;;;;3.63;1.60;;;2.90;99.90;;;;;;5078449;28;20548;-68
2022/01/06 02:56:43;;;;;;;3.57;1.70;;;2.80;99.90;;;;;;5078180;28;20477;-70
2022/01/06 02:59:10;;;;;;;3.67;1.73;;;2.80;99.90;;;;;;5078277;28;20569;-69
2022/01/06 03:01:40;;;;;;;1.50;1.20;;;2.80;99.90;;;;;;5078575;28;20454;-69
2022/01/06 03:04:07;;;;;;;4.93;1.30;;;2.80;99.90;;;;;;5078551;28;20915;-69
2022/01/06 03:06:34;;;;;;;4.03;1.53;;;2.80;99.90;;;;;;5077936;28;20454;-70
2022/01/06 03:09:01;;;;;;;2.20;1.43;;;2.80;99.90;;;;;;5078011;28;20846;-70
2022/01/06 03:11:29;;;;;;;2.70;1.50;;;2.70;99.90;;;;;;5077902;28;20458;-70
2022/01/06 03:13:57;;;;;;;2.00;1.40;;;2.70;99.90;;;;;;5077514;28;20523;-71
2022/01/06 03:16:26;;;;;;;3.10;1.63;;;2.70;99.90;;;;;;5078021;28;20930;-70
2022/01/06 03:18:53;;;;;;;5.77;1.50;;;2.70;99.90;;;;;;5079073;28;20446;-71
2022/01/06 03:21:19;;;;;;;2.53;1.60;;;2.60;99.90;;;;;;5078342;28;20469;-70
2022/01/06 03:23:46;;;;;;;2.23;1.40;;;2.60;99.90;;;;;;5077402;28;20991;-70
2022/01/06 03:26:13;;;;;;;3.00;1.57;;;2.60;99.90;;;;;;5077288;28;20981;-71
2022/01/06 03:28:41;;;;;;;2.10;1.60;;;2.60;1.00;;;;;;5076743;28;20952;-70
2022/01/06 03:31:07;;;;;;;6.37;1.70;;;2.50;1.00;;;;;;5077264;28;20457;-70
2022/01/06 03:33:34;;;;;;;3.00;1.30;;;2.50;1.00;;;;;;5077113;28;20945;-70
2022/01/06 03:36:01;;;;;;;2.50;1.50;;;2.50;1.00;;;;;;5077355;28;20455;-70
2022/01/06 03:38:28;;;;;;;2.00;1.40;;;2.40;1.00;;;;;;5076965;28;20478;-70
2022/01/06 03:41:09;;;;;;;1.87;1.30;;;2.40;1.00;;;;;;5076597;28;20454;-70
2022/01/06 03:43:36;;;;;;;2.07;1.10;;;2.30;1.00;;;;;;5074989;28;20578;-70
2022/01/06 03:46:04;;;;;;;4.03;1.30;;;2.20;1.00;;;;;;5076605;28;20937;-69
2022/01/06 03:48:30;;;;;;;4.13;1.50;;;2.20;17.80;;;;;;5076597;28;20531;-70
2022/01/06 03:50:57;;;;;;;2.87;1.10;;;2.10;9.90;;;;;;5076864;28;20454;-71
2022/01/06 03:53:24;;;;;;;3.33;1.20;;;2.10;1.00;;;;;;5077181;28;20453;-70
2022/01/06 03:55:51;;;;;;;1.63;1.20;;;2.00;35.50;;;;;;5076748;28;20457;-70
2022/01/06 03:58:17;;;;;;;5.17;1.43;;;2.00;99.90;;;;;;5076595;28;20585;-70
2022/01/06 04:00:44;;;;;;;4.27;1.23;;;1.90;1.00;;;;;;5076633;28;20583;-69
2022/01/06 04:03:14;;;;;;;4.47;1.40;;;1.90;1.00;;;;;;5076883;28;20825;-70
2022/01/06 04:05:41;;;;;;;1.90;1.20;;;1.90;1.00;;;;;;5076439;28;20438;-70
2022/01/06 04:08:08;;;;;;;1.93;1.20;;;1.80;1.00;;;;;;5076295;28;20450;-70
2022/01/06 04:10:34;;;;;;;3.97;1.30;;;1.80;99.90;;;;;;5076586;28;20469;-71
2022/01/06 04:13:01;;;;;;;2.70;1.20;;;1.80;1.00;;;;;;5076420;28;20462;-70
2022/01/06 04:15:28;;;;;;;3.20;1.50;;;1.80;1.00;;;;;;5076557;28;20971;-70
2022/01/06 04:17:55;;;;;;;2.20;1.10;;;1.70;1.00;;;;;;5076213;28;20478;-70
2022/01/06 04:20:23;;;;;;;1.30;1.10;;;1.70;1.00;;;;;;5076442;28;20465;-70
2022/01/06 04:22:49;;;;;;;1.87;1.30;;;1.70;99.90;;;;;;5076399;28;20847;-71
2022/01/06 04:25:16;;;;;;;2.10;1.43;;;1.60;99.90;;;;;;5076096;28;20543;-71
2022/01/06 04:27:43;;;;;;;1.67;1.23;;;1.60;8.40;;;;;;5075946;28;20461;-70
2022/01/06 04:30:11;;;;;;;1.53;1.00;;;1.60;1.00;;;;;;5076231;28;20458;-70
2022/01/06 04:32:37;;;;;;;2.80;1.27;;;1.50;1.00;;;;;;5076001;28;20462;-71
2022/01/06 04:35:06;;;;;;;2.23;1.30;;;1.50;1.00;;;;;;5075890;28;20464;-70
2022/01/06 04:37:34;;;;;;;2.80;1.40;;;1.50;1.00;;;;;;5075832;28;20501;-70
2022/01/06 04:40:01;;;;;;;1.93;1.03;;;1.40;1.00;;;;;;5074698;28;20926;-70
2022/01/06 04:42:28;;;;;;;3.67;1.13;;;1.40;99.90;;;;;;5075505;28;20519;-70
2022/01/06 04:44:55;;;;;;;3.90;1.60;;;1.40;99.90;;;;;;5075683;28;20454;-69
2022/01/06 04:47:21;;;;;;;1.30;1.20;;;1.40;99.90;;;;;;5075588;28;20484;-70
2022/01/06 04:49:48;;;;;;;3.73;1.00;;;1.30;99.90;;;;;;5075624;28;20442;-69
2022/01/06 04:52:15;;;;;;;6.33;2.30;;;1.40;99.90;;;;;;5075667;28;20458;-69
2022/01/06 04:54:43;;;;;;;1.70;1.30;;;1.40;99.90;;;;;;5075217;28;20919;-70
2022/01/06 04:57:10;;;;;;;1.80;1.20;;;1.30;99.90;;;;;;5075541;28;20486;-70
2022/01/06 04:59:36;;;;;;;3.87;1.30;;;1.30;99.90;;;;;;5075281;28;20454;-70
2022/01/06 05:02:04;;;;;;;2.00;1.60;;;1.30;99.90;;;;;;5075467;28;20832;-69
2022/01/06 05:04:30;;;;;;;5.80;1.43;;;1.30;99.90;;;;;;5075537;28;20454;-70
2022/01/06 05:06:57;;;;;;;1.67;1.27;;;1.30;99.90;;;;;;5075407;28;20834;-70
2022/01/06 05:09:24;;;;;;;2.27;1.50;;;1.30;99.90;;;;;;5076029;28;20458;-70
2022/01/06 05:11:52;;;;;;;3.33;1.40;;;1.30;99.90;;;;;;5076440;28;20923;-70
2022/01/06 05:14:19;;;;;;;1.57;1.33;;;1.20;99.90;;;;;;5076513;28;20450;-70
2022/01/06 05:16:45;;;;;;;1.90;1.57;;;1.20;99.90;;;;;;5075364;28;20458;-69
2022/01/06 05:19:12;;;;;;;1.57;1.40;;;1.20;99.90;;;;;;5075622;28;20796;-69
2022/01/06 05:21:40;;;;;;;2.53;1.37;;;1.20;99.90;;;;;;5075954;28;20458;-70
2022/01/06 05:24:12;;;;;;;2.60;1.30;;;1.20;99.90;;;;;;5075880;28;20480;-69
2022/01/06 05:26:39;;;;;;;3.27;1.50;;;1.20;99.90;;;;;;5074896;28;20438;-69
2022/01/06 05:29:07;;;;;;;4.07;1.60;;;1.20;99.90;;;;;;5075548;28;20454;-69
2022/01/06 05:31:34;;;;;;;3.30;1.37;;;1.10;1.00;;;;;;5076474;28;20454;-70
2022/01/06 05:34:01;;;;;;;2.80;1.10;;;1.10;1.00;;;;;;5075569;28;20465;-70
2022/01/06 05:36:28;;;;;;;2.50;1.27;;;1.10;1.00;;;;;;5076143;28;20533;-72
2022/01/06 05:38:55;;;;;;;3.07;1.30;;;1.10;1.00;;;;;;5074871;28;20478;-68
2022/01/06 05:41:21;;;;;;;2.50;1.77;;;1.10;99.90;;;;;;5074998;28;20500;-69
2022/01/06 05:43:48;;;;;;;2.03;1.23;;;1.10;99.90;;;;;;5074757;28;20968;-69
2022/01/06 05:46:17;;;;;;;1.53;1.20;;;1.10;99.90;;;;;;5074846;28;20549;-70
2022/01/06 05:48:43;;;;;;;1.93;1.23;;;1.10;99.90;;;;;;5074667;28;20479;-70
2022/01/06 05:51:10;;;;;;;4.17;1.50;;;1.10;1.00;;;;;;5074856;28;20470;-69
2022/01/06 05:53:37;;;;;;;2.87;1.73;;;1.10;1.00;;;;;;5074869;28;20519;-70
2022/01/06 05:56:04;;;;;;;7.37;1.43;;;1.10;1.00;;;;;;5074690;28;20466;-68
2022/01/06 05:58:30;;;;;;;3.63;2.13;;;1.10;1.00;;;;;;5074341;28;20962;-70
2022/01/06 06:00:57;;;;;;;1.67;1.37;;;1.10;61.10;;;;;;5074782;28;20566;-69
2022/01/06 06:03:27;;;;;;;3.50;1.57;;;1.10;99.90;;;;;;5074395;28;20462;-70
2022/01/06 06:05:54;;;;;;;2.83;1.30;;;1.10;1.00;;;;;;5075017;28;20458;-69
2022/01/06 06:08:20;;;;;;;2.80;1.70;;;1.10;1.00;;;;;;5075884;28;20455;-68
2022/01/06 06:10:47;;;;;;;3.47;1.97;;;1.10;99.90;;;;;;5075832;28;20465;-70
2022/01/06 06:13:14;;;;;;;4.10;1.90;;;1.10;99.90;;;;;;5074999;28;20462;-70
2022/01/06 06:15:41;;;;;;;6.10;2.40;;;1.00;1.00;;;;;;5074993;28;20458;-70
2022/01/06 06:18:09;;;;;;;2.33;1.97;;;1.00;1.00;;;;;;5074304;28;20474;-70
2022/01/06 06:20:37;;;;;;;6.17;1.60;;;1.00;99.90;;;;;;5074308;28;20553;-70
2022/01/06 06:23:04;;;;;;;4.80;1.73;;;1.00;1.00;;;;;;5074415;28;20922;-70
2022/01/06 06:25:31;;;;;;;5.17;2.07;;;0.90;1.00;;;;;;5074901;28;20465;-70
2022/01/06 06:27:58;;;;;;;2.00;1.90;;;0.90;99.90;;;;;;5074445;28;20469;-69
2022/01/06 06:30:24;;;;;;;6.90;2.00;;;0.90;1.00;;;;;;5074657;28;20466;-70
2022/01/06 06:32:51;;;;;;;7.67;1.90;;;0.80;99.90;;;;;;5074384;28;20520;-70
2022/01/06 06:35:18;;;;;;;3.43;1.80;;;0.80;99.90;;;;;;5074904;28;20454;-70
2022/01/06 06:37:46;;;;;;;6.40;2.00;;;0.80;99.90;;;;;;5075346;28;20989;-70
2022/01/06 06:40:13;;;;;;;6.90;2.20;;;0.80;1.00;;;;;;5074614;28;20943;-69
2022/01/06 06:42:39;;;;;;;3.73;1.53;;;0.70;1.00;;;;;;5075260;28;20961;-69
2022/01/06 06:45:08;;;;;;;3.80;1.90;;;0.70;1.00;;;;;;5074940;28;20466;-70
2022/01/06 06:47:35;;;;;;;6.03;1.80;;;0.70;1.00;;;;;;5073850;28;20514;-69
2022/01/06 06:50:01;;;;;;;6.10;2.37;;;0.70;1.00;;;;;;5074339;28;20458;-70
2022/01/06 06:52:28;;;;;;;4.60;1.90;;;0.70;1.00;;;;;;5074385;28;20490;-69
2022/01/06 06:54:56;;;;;;;3.50;1.80;;;0.70;1.00;;;;;;5075068;28;20458;-70
2022/01/06 06:57:26;;;;;;;3.87;1.90;;;0.70;1.00;;;;;;5074558;28;20454;-69
2022/01/06 06:59:52;;;;;;;8.90;1.93;;;0.70;1.00;;;;;;5074564;28;20460;-69
2022/01/06 07:02:19;;;;;;;6.97;1.80;;;0.70;1.00;;;;;;5074051;28;20879;-70
2022/01/06 07:04:49;;;;;;;4.13;2.00;;;0.70;1.00;;;;;;5077786;28;20537;-69
2022/01/06 07:07:16;;;;;;;3.20;1.80;;;0.70;1.00;;;;;;5077380;28;20465;-70
2022/01/06 07:09:45;;;;;;;4.67;2.13;;;0.70;1.00;;;;;;5077149;28;20457;-69
2022/01/06 07:12:13;;;;;;;2.83;1.70;;;0.70;1.00;;;;;;5077471;28;20450;-68
2022/01/06 07:14:40;;;;;;;3.10;1.90;;;0.70;1.00;;;;;;5077750;28;20461;-68
2022/01/06 07:17:07;;;;;;;2.10;1.90;;;0.60;1.00;;;;;;5077410;28;20464;-69
2022/01/06 07:19:33;;;;;;;4.37;2.20;;;0.70;1.00;;;;;;5077393;28;20810;-70
2022/01/06 07:22:00;;;;;;;4.60;2.03;;;0.70;1.00;;;;;;5077350;28;20488;-70
2022/01/06 07:24:27;;;;;;;9.37;2.13;;;0.70;2.30;;;;;;5076692;28;20516;-68
2022/01/06 07:26:53;;;;;;;2.43;1.90;;;0.70;9.10;;;;;;5077239;28;20469;-69
2022/01/06 07:29:21;;;;;;;4.47;2.13;;;0.70;14.00;;;;;;5077005;28;20465;-68
2022/01/06 07:31:48;;;;;;;1.83;1.70;;;0.70;22.80;;;;;;5077090;28;20957;-70
2022/01/06 07:34:15;;;;;;;3.00;1.70;;;0.70;26.50;;;;;;5077215;28;20902;-70
2022/01/06 07:36:42;;;;;;;2.83;1.93;;;0.70;31.90;;;;;;5076596;28;20480;-69
2022/01/06 07:39:08;;;;;;;2.60;2.13;;;0.70;37.60;;;;;;5076846;28;20845;-70
2022/01/06 07:41:35;;;;;;;8.07;2.60;;;0.60;41.40;;;;;;5076868;28;20454;-69
2022/01/06 07:44:05;;;;;;;4.70;2.53;;;0.70;50.70;;;;;;5077430;28;20465;-69
2022/01/06 07:46:34;;;;;;;2.60;2.10;;;0.70;56.80;;;;;;5076843;28;20438;-68
2022/01/06 07:49:01;;;;;;;4.50;2.00;;;0.70;58.60;;;;;;5076459;28;20796;-70
2022/01/06 07:51:29;;;;;;;3.53;2.30;;;0.60;69.10;;;;;;5076843;28;20469;-69
2022/01/06 07:53:58;;;;;;;5.40;1.90;;;0.60;90.80;;;;;;5076004;28;20454;-69
2022/01/06 07:56:25;;;;;;;6.87;2.00;;;0.70;95.80;;;;;;5076285;28;20515;-69
2022/01/06 07:58:52;;;;;;;3.67;2.20;;;0.70;99.80;;;;;;5077135;28;20478;-68
2022/01/06 08:01:19;;;;;;;3.87;2.67;;;0.70;99.90;;;;;;5075907;28;20842;-70
2022/01/06 08:03:47;;;;;;;6.30;2.30;;;0.70;99.90;;;;;;5076086;28;20458;-69
2022/01/06 08:06:16;;;;;;;4.80;2.20;;;0.70;99.90;;;;;;5076319;28;20914;-69
2022/01/06 08:08:43;;;;;;;3.80;1.70;;;0.70;99.90;;;;;;5076157;28;20914;-69
2022/01/06 08:11:10;;;;;;;3.93;2.20;;;0.70;99.90;;;;;;5076048;28;20511;-69
2022/01/06 08:13:37;;;;;;;2.17;1.93;;;0.80;99.90;;;;;;5076046;28;20454;-69
2022/01/06 08:16:04;;;;;;;7.23;2.13;;;0.80;98.20;;;;;;5076161;28;20455;-68
2022/01/06 08:18:31;;;;;;;4.77;2.20;;;0.80;98.90;;;;;;5076123;28;20958;-69
2022/01/06 08:20:59;;;;;;;4.90;2.10;;;0.80;95.00;;;;;;5075927;28;20464;-68
2022/01/06 08:23:26;;;;;;;2.97;2.07;;;0.90;93.90;;;;;;5076230;28;20465;-69
2022/01/06 08:25:53;;;;;;;4.03;1.80;;;0.90;93.50;;;;;;5076173;28;20466;-68
2022/01/06 08:28:20;;;;;;;2.70;1.90;;;0.90;80.10;;;;;;5076087;28;20478;-69
2022/01/06 08:30:47;;;;;;;6.33;1.77;;;0.90;62.80;;;;;;5075608;28;20465;-70
2022/01/06 08:33:15;;;;;;;2.70;1.77;;;1.00;59.40;;;;;;5075425;28;20933;-71
2022/01/06 08:35:42;;;;;;;4.20;2.00;;;1.00;42.80;;;;;;5076106;28;20458;-70
2022/01/06 08:38:10;;;;;;;2.67;1.80;;;1.10;32.00;;;;;;5075640;28;20469;-70
2022/01/06 08:40:37;;;;;;;2.20;1.47;;;1.00;33.00;;;;;;5075553;28;20459;-70
2022/01/06 08:43:04;;;;;;;3.47;1.80;;;1.10;29.90;;;;;;5075616;28;20565;-70
2022/01/06 08:45:32;;;;;;;4.03;2.00;;;1.20;13.10;;;;;;5075988;28;20458;-69
2022/01/06 08:47:59;;;;;;;4.47;1.90;;;1.20;3.30;;;;;;5075069;28;20483;-70
2022/01/06 08:50:26;;;;;;;6.70;1.60;;;1.20;1.00;;;;;;5075296;28;20470;-70
2022/01/06 08:52:53;;;;;;;2.87;1.63;;;1.30;1.00;;;;;;5075449;28;20454;-70
2022/01/06 08:55:22;;;;;;;3.20;2.13;;;1.30;1.00;;;;;;5075065;28;20497;-69
2022/01/06 08:57:48;;;;;;;3.83;2.10;;;1.30;1.00;;;;;;5075317;28;20454;-70
2022/01/06 09:00:15;;;;;;;2.80;2.40;;;1.40;1.00;;;;;;5075495;28;20567;-71
2022/01/06 09:02:42;;;;;;;7.47;2.27;;;1.40;1.00;;;;;;5075182;28;20462;-70
2022/01/06 09:05:10;;;;;;;4.13;2.57;;;1.50;1.00;;;;;;5075147;28;20458;-70
2022/01/06 09:07:37;;;;;;;5.10;2.30;;;1.50;1.00;;;;;;5075309;28;20462;-70
2022/01/06 09:10:05;;;;;;;3.93;2.33;;;1.50;1.00;;;;;;5075157;28;20511;-70
2022/01/06 09:12:34;;;;;;;2.43;1.90;;;1.50;1.00;;;;;;5075210;28;20908;-69
2022/01/06 09:15:00;;;;;;;1.90;1.50;;;1.60;1.00;;;;;;5075026;28;20760;-71
2022/01/06 09:17:27;;;;;;;4.33;2.23;;;1.60;1.00;;;;;;5075114;28;20454;-70
2022/01/06 09:19:54;;;;;;;5.33;1.80;;;1.60;1.00;;;;;;5074540;28;20961;-70
2022/01/06 09:22:20;;;;;;;3.30;1.97;;;1.60;1.00;;;;;;5074813;28;20454;-70
2022/01/06 09:24:48;;;;;;;3.30;1.90;;;1.70;1.00;;;;;;5074547;28;20471;-70
2022/01/06 09:27:14;;;;;;;6.80;2.07;;;1.70;1.00;;;;;;5074131;28;20942;-70
2022/01/06 09:29:42;;;;;;;6.70;2.43;;;1.70;1.00;;;;;;5075055;28;20466;-70
2022/01/06 09:32:09;;;;;;;9.33;2.57;;;1.80;1.00;;;;;;5074491;28;20462;-71
2022/01/06 09:34:36;;;;;;;10.93;2.47;;;1.90;1.00;;;;;;5075177;28;20843;-70
2022/01/06 09:37:03;;;;;;;5.30;1.90;;;1.90;1.00;;;;;;5076282;28;20454;-70
2022/01/06 09:39:30;;;;;;;8.00;1.97;;;1.90;1.00;;;;;;5075705;28;20495;-71
2022/01/06 09:41:57;;;;;;;4.40;2.30;;;1.90;1.00;;;;;;5074761;28;20934;-70
2022/01/06 09:44:24;;;;;;;5.03;1.70;;;1.90;1.00;;;;;;5075096;28;20465;-70
2022/01/06 09:46:54;;;;;;;7.50;1.70;;;2.00;1.00;;;;;;5075071;28;20469;-70
2022/01/06 09:49:22;;;;;;;3.83;1.50;;;1.90;99.90;;;;;;5074587;28;20489;-70
2022/01/06 09:51:48;;;;;;;9.27;2.10;;;2.00;99.90;;;;;;5074795;28;20469;-70
2022/01/06 09:54:15;;;;;;;3.90;2.07;;;2.10;99.90;;;;;;5074739;28;20939;-69
2022/01/06 09:56:42;;;;;;;2.27;1.53;;;2.10;99.90;;;;;;5074822;28;20798;-69
2022/01/06 09:59:08;;;;;;;7.00;2.23;;;2.20;99.90;;;;;;5074612;28;20564;-71
2022/01/06 10:01:35;;;;;;;5.57;1.87;;;2.20;12.70;;;;;;5074586;28;20458;-70
2022/01/06 10:04:03;;;;;;;3.20;1.63;;;2.20;1.00;;;;;;5074719;28;20462;-71
2022/01/06 10:06:30;;;;;;;2.40;1.87;;;2.30;1.00;;;;;;5074589;28;20466;-70
2022/01/06 10:09:01;;;;;;;5.23;1.70;;;2.30;1.00;;;;;;5075598;28;20450;-70
2022/01/06 10:11:29;;;;;;;4.00;2.40;;;2.40;1.00;;;;;;5074918;28;20461;-70
2022/01/06 10:13:59;;;;;;;4.83;2.60;;;2.40;99.90;;;;;;5074683;28;20785;-70
2022/01/06 10:16:29;;;;;;;2.57;2.10;;;2.50;1.00;;;;;;5074569;28;20996;-70
2022/01/06 10:19:04;;;;;;;4.10;2.20;;;2.50;1.00;;;;;;5074304;28;20565;-70
2022/01/06 10:21:32;;;;;;;1.90;1.60;;;2.50;1.00;;;;;;5074444;28;20441;-71
2022/01/06 10:24:01;;;;;;;9.53;1.70;;;2.60;33.80;;;;;;5074426;28;20560;-70
2022/01/06 10:26:28;;;;;;;7.07;1.93;;;2.60;18.50;;;;;;5074567;28;20469;-71
2022/01/06 10:28:54;;;;;;;4.23;1.73;;;2.70;1.00;;;;;;5074115;28;20461;-70
2022/01/06 10:31:29;;;;;;;2.90;1.57;;;2.70;99.90;;;;;;5074141;28;20470;-70
2022/01/06 10:33:56;;;;;;;2.30;1.50;;;2.80;1.00;;;;;;5073926;28;20458;-69
2022/01/06 10:36:32;;;;;;;8.60;1.70;;;2.80;1.00;;;;;;5074123;28;20464;-70
2022/01/06 10:39:01;;;;;;;3.33;1.80;;;2.80;1.00;;;;;;5077124;28;20481;-69
2022/01/06 10:41:29;;;;;;;8.93;1.73;;;2.90;1.00;;;;;;5077714;28;20458;-71
2022/01/06 10:43:57;;;;;;;5.27;2.30;;;2.90;1.00;;;;;;5078080;28;20454;-70
2022/01/06 10:46:29;;;;;;;3.37;1.33;;;2.90;99.90;;;;;;5078084;28;20487;-70
2022/01/06 10:48:59;;;;;;;6.27;1.97;;;2.90;99.90;;;;;;5078551;28;20485;-71
2022/01/06 10:51:36;;;;;;;5.33;1.40;;;2.90;99.90;;;;;;5078345;28;20895;-70
2022/01/06 10:54:04;;;;;;;2.50;1.90;;;2.90;99.90;;;;;;5078104;28;20507;-71
2022/01/06 10:56:30;;;;;;;2.07;1.60;;;3.00;99.90;;;;;;5078618;28;20453;-70
2022/01/06 10:58:59;;;;;;;3.30;1.40;;;3.00;99.90;;;;;;5078397;28;20454;-70
2022/01/06 11:01:26;;;;;;;4.73;2.00;;;3.00;99.90;;;;;;5077976;28;20458;-71
2022/01/06 11:03:53;;;;;;;4.40;1.60;;;3.10;1.00;;;;;;5077974;28;20519;-70
2022/01/06 11:06:19;;;;;;;2.37;1.40;;;3.10;1.00;;;;;;5078097;28;20464;-70
2022/01/06 11:08:50;;;;;;;2.50;1.30;;;3.20;99.90;;;;;;5077521;28;20902;-70
2022/01/06 11:11:30;;;;;;;3.27;1.90;;;3.20;99.90;;;;;;5078799;28;20859;-69
2022/01/06 11:13:57;;;;;;;3.53;1.47;;;3.20;99.90;;;;;;5077920;28;20442;-70
2022/01/06 11:16:24;;;;;;;3.57;1.77;;;3.20;99.90;;;;;;5077753;28;20453;-70
2022/01/06 11:18:53;;;;;;;4.80;2.30;;;3.20;99.90;;;;;;5077432;28;20462;-70
2022/01/06 11:21:24;;;;;;;3.90;1.60;;;3.30;14.50;;;;;;5077208;28;20469;-69
2022/01/06 11:24:04;;;;;;;5.33;1.70;;;3.40;1.00;;;;;;5077210;28;20499;-70
2022/01/06 11:26:30;;;;;;;7.20;1.50;;;3.50;1.00;;;;;;5077200;28;20445;-71
2022/01/06 11:28:59;;;;;;;5.40;1.60;;;3.50;1.00;;;;;;5077437;28;20458;-70
2022/01/06 11:31:29;;;;;;;5.47;1.67;;;3.50;1.00;;;;;;5077182;28;20980;-70
2022/01/06 11:33:57;;;;;;;2.50;1.43;;;3.50;1.00;;;;;;5077234;28;20464;-70
2022/01/06 11:36:29;;;;;;;5.27;1.90;;;3.60;1.00;;;;;;5077048;28;20458;-71
2022/01/06 11:38:56;;;;;;;2.70;2.13;;;3.70;1.00;;;;;;5076923;28;20438;-71
2022/01/06 11:41:32;;;;;;;2.37;1.30;;;3.60;1.00;;;;;;5076841;28;20458;-70
2022/01/06 11:44:02;;;;;;;3.67;1.50;;;3.70;1.00;;;;;;5077266;28;20887;-70
2022/01/06 11:46:29;;;;;;;3.77;1.27;;;3.70;99.90;;;;;;5077120;28;20458;-71
2022/01/06 11:48:59;;;;;;;2.00;1.37;;;3.70;99.90;;;;;;5075977;28;20486;-71
2022/01/06 11:51:27;;;;;;;4.33;1.80;;;3.70;99.90;;;;;;5076817;28;20844;-70
2022/01/06 11:53:54;;;;;;;1.60;1.10;;;3.80;99.90;;;;;;5077598;28;20459;-70
2022/01/06 11:56:23;;;;;;;3.97;1.50;;;3.90;99.90;;;;;;5076999;28;20468;-71
2022/01/06 11:59:03;;;;;;;4.10;1.47;;;4.00;99.90;;;;;;5078014;28;20540;-71
2022/01/06 12:01:46;;;;;;;4.70;1.30;;;4.10;99.90;;;;;;5077653;28;20879;-71
2022/01/06 12:04:16;;;;;;;3.33;1.10;;;4.20;99.90;;;;;;5078181;28;20449;-71
2022/01/06 12:06:43;;;;;;;7.30;2.80;;;4.30;99.90;;;;;;5076909;28;20458;-70
2022/01/06 12:09:16;;;;;;;9.53;1.80;;;4.40;99.90;;;;;;5077354;28;20968;-71
2022/01/06 12:11:43;;;;;;;3.20;1.30;;;4.60;99.90;;;;;;5076205;28;20891;-72
2022/01/06 12:14:12;;;;;;;7.00;1.30;;;5.20;99.90;;;;;;5077636;28;20549;-72
2022/01/06 12:16:43;;;;;;;2.07;1.30;;;6.10;99.90;;;;;;5076610;28;20567;-70
2022/01/06 12:19:17;;;;;;;5.80;1.77;;;7.30;99.90;;;;;;5076017;28;20474;-70
2022/01/06 12:21:45;;;;;;;3.90;1.40;;;8.20;99.90;;;;;;5076414;28;20458;-70
2022/01/06 12:24:13;;;;;;;2.83;0.93;;;8.80;1.00;;;;;;5076363;28;20477;-70
2022/01/06 12:26:41;;;;;;;1.93;1.37;;;9.50;1.00;;;;;;5076133;28;20469;-71
2022/01/06 12:29:15;;;;;;;2.23;1.37;;;10.00;1.00;;;;;;5076999;28;20454;-72
2022/01/06 12:31:42;;;;;;;6.23;1.40;;;10.00;19.40;;;;;;5076377;28;20442;-70
2022/01/06 12:34:11;;;;;;;4.30;1.20;;;10.50;99.90;;;;;;5076702;28;20458;-71
2022/01/06 12:36:43;;;;;;;3.20;1.77;;;11.00;1.00;;;;;;5078662;28;20762;-71
2022/01/06 12:39:13;;;;;;;2.90;1.20;;;11.30;1.00;;;;;;5077334;28;20439;-72
2022/01/06 12:41:41;;;;;;;3.40;1.17;;;11.30;1.00;;;;;;5078561;28;20435;-71
2022/01/06 12:44:08;;;;;;;3.50;1.30;;;11.00;99.90;;;;;;5076804;28;20813;-71
2022/01/06 12:46:38;;;;;;;2.10;1.10;;;11.10;1.00;;;;;;5076132;28;20791;-71
2022/01/06 12:49:07;;;;;;;2.83;1.70;;;11.30;99.90;;;;;;5075028;28;20814;-70
2022/01/06 12:51:35;;;;;;;2.03;1.23;;;11.50;99.90;;;;;;5075412;28;20985;-71
2022/01/06 12:54:05;;;;;;;2.60;1.10;;;11.40;1.00;;;;;;5075841;28;20458;-73
2022/01/06 12:56:36;;;;;;;2.93;1.03;;;11.10;1.00;;;;;;5075665;28;20458;-70
2022/01/06 12:59:09;;;;;;;2.33;1.20;;;10.90;1.00;;;;;;5075715;28;20418;-71
2022/01/06 13:01:38;;;;;;;3.17;0.97;;;10.80;1.00;;;;;;5074632;28;20539;-71
2022/01/06 13:04:06;;;;;;;3.70;1.07;;;10.60;49.90;;;;;;5076560;28;20454;-71
2022/01/06 13:06:35;;;;;;;2.50;1.00;;;10.70;50.00;;;;;;5075957;28;20473;-70